createdAt,value
2017-07-26T00:00:34.650Z,14.00
2017-07-26T00:03:02.085Z,14.00
2017-07-26T00:05:29.526Z,14.10
2017-07-26T00:07:57.761Z,14.20
2017-07-26T00:10:25.215Z,14.20
2017-07-26T00:12:52.662Z,14.10
2017-07-26T00:15:20.106Z,14.20
2017-07-26T00:17:47.555Z,14.10
2017-07-26T00:20:15.003Z,14.00
2017-07-26T00:22:42.438Z,14.10
2017-07-26T00:25:10.663Z,14.00
2017-07-26T00:27:38.103Z,14.00
2017-07-26T00:30:05.558Z,14.10
2017-07-26T00:32:32.999Z,14.10
2017-07-26T00:35:00.434Z,14.10
2017-07-26T00:37:28.647Z,14.00
2017-07-26T00:39:56.097Z,14.00
2017-07-26T00:42:23.526Z,14.10
2017-07-26T00:44:50.967Z,14.10
2017-07-26T00:47:19.227Z,14.20
2017-07-26T00:49:46.642Z,14.20
2017-07-26T00:52:14.074Z,14.20
2017-07-26T00:54:41.519Z,14.30
2017-07-26T00:57:09.728Z,14.30
2017-07-26T00:59:37.182Z,14.30
2017-07-26T01:02:04.622Z,14.30
2017-07-26T01:04:32.079Z,14.30
2017-07-26T01:06:59.506Z,14.30
2017-07-26T01:09:27.726Z,14.30
2017-07-26T01:11:55.164Z,14.30
2017-07-26T01:14:22.619Z,14.30
2017-07-26T01:16:50.056Z,14.40
2017-07-26T01:19:18.266Z,14.40
2017-07-26T01:21:45.711Z,14.40
2017-07-26T01:24:13.145Z,14.40
2017-07-26T01:26:41.355Z,14.50
2017-07-26T01:29:08.811Z,14.50
2017-07-26T01:31:36.255Z,14.50
2017-07-26T01:34:03.688Z,14.50
2017-07-26T01:36:31.895Z,14.50
2017-07-26T01:38:59.355Z,14.50
2017-07-26T01:41:26.807Z,14.50
2017-07-26T01:43:54.242Z,14.40
2017-07-26T01:46:21.682Z,14.40
2017-07-26T01:48:49.894Z,14.50
2017-07-26T01:51:17.330Z,14.40
2017-07-26T01:53:44.775Z,14.50
2017-07-26T01:56:12.979Z,14.40
2017-07-26T01:58:40.425Z,14.40
2017-07-26T02:01:07.866Z,14.40
2017-07-26T02:03:35.316Z,14.40
2017-07-26T02:06:02.755Z,14.40
2017-07-26T02:08:30.991Z,14.40
2017-07-26T02:10:58.435Z,14.40
2017-07-26T02:13:25.871Z,14.50
2017-07-26T02:15:53.319Z,14.50
2017-07-26T02:18:20.758Z,14.40
2017-07-26T02:20:48.977Z,14.50
2017-07-26T02:23:16.430Z,14.50
2017-07-26T02:25:43.882Z,14.50
2017-07-26T02:28:11.319Z,14.50
2017-07-26T02:30:38.763Z,14.50
2017-07-26T02:33:06.972Z,14.50
2017-07-26T02:35:34.442Z,14.50
2017-07-26T02:38:01.889Z,14.50
2017-07-26T02:40:29.342Z,14.50
2017-07-26T02:42:56.799Z,14.50
2017-07-26T02:45:24.238Z,14.50
2017-07-26T02:47:51.689Z,14.50
2017-07-26T02:50:19.126Z,14.50
2017-07-26T02:52:48.161Z,14.50
2017-07-26T02:55:15.596Z,14.50
2017-07-26T02:57:43.036Z,14.50
2017-07-26T03:00:11.244Z,14.50
2017-07-26T03:02:38.696Z,14.50
2017-07-26T03:05:06.127Z,14.50
2017-07-26T03:07:33.599Z,14.50
2017-07-26T03:10:01.034Z,14.50
2017-07-26T03:12:29.247Z,14.50
2017-07-26T03:14:56.698Z,14.50
2017-07-26T03:17:24.141Z,14.50
2017-07-26T03:19:51.585Z,14.50
2017-07-26T03:22:19.015Z,14.50
2017-07-26T03:24:47.244Z,14.50
2017-07-26T03:27:14.695Z,14.50
2017-07-26T03:29:42.152Z,14.50
2017-07-26T03:32:09.580Z,14.50
2017-07-26T03:34:37.027Z,14.60
2017-07-26T03:37:05.243Z,14.60
2017-07-26T03:39:32.698Z,14.60
2017-07-26T03:42:00.155Z,14.50
2017-07-26T03:44:27.605Z,14.60
2017-07-26T03:46:55.062Z,14.50
2017-07-26T03:49:22.519Z,14.50
2017-07-26T03:51:49.980Z,14.50
2017-07-26T03:54:17.422Z,14.50
2017-07-26T03:56:44.858Z,14.50
2017-07-26T03:59:12.294Z,14.50
2017-07-26T04:01:40.523Z,14.50
2017-07-26T04:04:07.975Z,14.50
2017-07-26T04:06:35.410Z,14.60
2017-07-26T04:09:02.859Z,14.60
2017-07-26T04:11:30.290Z,14.60
2017-07-26T04:13:58.515Z,14.50
2017-07-26T04:16:25.954Z,14.50
2017-07-26T04:18:53.406Z,14.50
2017-07-26T04:21:20.840Z,14.60
2017-07-26T04:23:49.071Z,14.50
2017-07-26T04:26:16.526Z,14.50
2017-07-26T04:28:43.970Z,14.50
2017-07-26T04:31:11.426Z,14.50
2017-07-26T04:33:38.858Z,14.60
2017-07-26T04:36:06.297Z,14.60
2017-07-26T04:38:34.511Z,14.50
2017-07-26T04:41:01.966Z,14.50
2017-07-26T04:43:29.417Z,14.60
2017-07-26T04:45:56.854Z,14.60
2017-07-26T04:48:24.294Z,14.70
2017-07-26T04:50:52.523Z,14.60
2017-07-26T04:53:19.967Z,14.60
2017-07-26T04:55:47.405Z,14.70
2017-07-26T04:58:14.851Z,14.80
2017-07-26T05:00:42.284Z,14.80
2017-07-26T05:03:10.502Z,14.80
2017-07-26T05:05:37.935Z,14.80
2017-07-26T05:08:05.375Z,14.80
2017-07-26T05:10:33.592Z,14.80
2017-07-26T05:13:01.048Z,14.70
2017-07-26T05:15:28.474Z,14.80
2017-07-26T05:17:55.939Z,14.70
2017-07-26T05:20:23.375Z,14.70
2017-07-26T05:22:50.811Z,14.80
2017-07-26T05:25:18.263Z,14.80
2017-07-26T05:27:45.709Z,14.90
2017-07-26T05:30:13.151Z,14.90
2017-07-26T05:32:40.597Z,14.90
2017-07-26T05:35:08.047Z,14.90
2017-07-26T05:37:35.482Z,14.90
2017-07-26T05:40:02.964Z,14.80
2017-07-26T05:42:30.399Z,14.90
2017-07-26T05:44:57.857Z,14.90
2017-07-26T05:47:25.290Z,15.00
2017-07-26T05:49:53.494Z,14.90
2017-07-26T05:52:20.934Z,14.90
2017-07-26T05:54:48.392Z,15.00
2017-07-26T05:57:15.814Z,15.00
2017-07-26T05:59:43.263Z,15.00
2017-07-26T06:02:10.723Z,15.00
2017-07-26T06:04:38.158Z,15.00
2017-07-26T06:07:05.610Z,15.00
2017-07-26T06:09:33.055Z,15.00
2017-07-26T06:12:00.494Z,15.00
2017-07-26T06:14:27.939Z,15.10
2017-07-26T06:16:55.370Z,15.10
2017-07-26T06:19:23.647Z,15.00
2017-07-26T06:21:51.077Z,15.00
2017-07-26T06:24:18.530Z,15.10
2017-07-26T06:26:45.979Z,15.10
2017-07-26T06:29:13.423Z,15.10
2017-07-26T06:31:40.858Z,15.10
2017-07-26T06:34:08.338Z,15.10
2017-07-26T06:36:35.770Z,15.10
2017-07-26T06:39:03.207Z,15.10
2017-07-26T06:41:31.423Z,15.20
2017-07-26T06:43:58.864Z,15.20
2017-07-26T06:46:26.311Z,15.30
2017-07-26T06:48:53.754Z,15.20
2017-07-26T06:51:21.194Z,15.20
2017-07-26T06:53:49.411Z,15.30
2017-07-26T06:56:16.848Z,15.20
2017-07-26T06:58:44.286Z,15.20
2017-07-26T07:01:12.503Z,15.20
2017-07-26T07:03:39.947Z,15.10
2017-07-26T07:06:07.416Z,15.20
2017-07-26T07:11:12.837Z,15.00
2017-07-26T07:13:40.290Z,15.00
2017-07-26T07:16:07.719Z,15.10
2017-07-26T07:18:35.166Z,15.00
2017-07-26T07:21:03.378Z,15.00
2017-07-26T07:23:30.834Z,15.00
2017-07-26T07:25:58.295Z,15.10
2017-07-26T07:28:25.746Z,15.20
2017-07-26T07:30:53.182Z,15.20
2017-07-26T07:33:20.632Z,15.30
2017-07-26T07:35:48.071Z,15.30
2017-07-26T07:38:16.286Z,15.30
2017-07-26T07:40:43.719Z,15.20
2017-07-26T07:43:11.157Z,15.40
2017-07-26T07:45:39.376Z,15.40
2017-07-26T07:48:06.884Z,15.40
2017-07-26T07:50:35.107Z,15.40
2017-07-26T07:53:02.538Z,15.30
2017-07-26T07:55:29.985Z,15.30
2017-07-26T07:57:58.195Z,15.10
2017-07-26T08:00:25.646Z,15.10
2017-07-26T08:02:53.092Z,15.20
2017-07-26T08:05:20.534Z,15.30
2017-07-26T08:07:47.978Z,15.30
2017-07-26T08:10:16.236Z,15.30
2017-07-26T08:12:43.682Z,15.30
2017-07-26T08:15:11.335Z,15.30
2017-07-26T08:17:38.802Z,15.20
2017-07-26T08:20:06.278Z,15.30
2017-07-26T08:22:33.689Z,15.40
2017-07-26T08:25:01.217Z,15.40
2017-07-26T08:27:28.658Z,15.30
2017-07-26T08:29:56.879Z,15.40
2017-07-26T08:32:24.331Z,15.30
2017-07-26T08:34:51.787Z,15.40
2017-07-26T08:37:19.219Z,15.50
2017-07-26T08:39:46.651Z,15.30
2017-07-26T08:42:14.095Z,15.30
2017-07-26T08:44:41.567Z,15.20
2017-07-26T08:47:09.033Z,15.30
2017-07-26T08:49:37.247Z,15.30
2017-07-26T08:52:04.682Z,15.30
2017-07-26T08:54:32.114Z,15.30
2017-07-26T08:57:00.363Z,15.30
2017-07-26T08:59:27.798Z,15.30
2017-07-26T09:01:55.248Z,15.30
2017-07-26T09:04:22.682Z,15.30
2017-07-26T09:06:50.127Z,15.20
2017-07-26T09:09:18.330Z,15.30
2017-07-26T09:11:45.856Z,15.20
2017-07-26T09:14:14.058Z,15.20
2017-07-26T09:16:41.498Z,15.20
2017-07-26T09:19:08.939Z,15.20
2017-07-26T09:21:37.148Z,15.20
2017-07-26T09:24:04.603Z,15.10
2017-07-26T09:26:32.048Z,15.20
2017-07-26T09:28:59.502Z,15.30
2017-07-26T09:31:26.947Z,15.30
2017-07-26T09:33:54.391Z,15.40
2017-07-26T09:36:22.607Z,15.20
2017-07-26T09:38:50.059Z,15.20
2017-07-26T09:41:17.498Z,15.10
2017-07-26T09:43:44.940Z,15.10
2017-07-26T09:46:12.384Z,15.30
2017-07-26T09:48:40.599Z,15.20
2017-07-26T09:51:08.045Z,15.20
2017-07-26T09:53:35.499Z,15.20
2017-07-26T09:56:02.938Z,15.20
2017-07-26T09:58:30.384Z,15.20
2017-07-26T10:00:58.595Z,15.30
2017-07-26T10:03:26.067Z,15.20
2017-07-26T10:05:53.509Z,15.30
2017-07-26T10:08:20.944Z,15.30
2017-07-26T10:10:48.386Z,15.30
2017-07-26T10:13:16.595Z,15.30
2017-07-26T10:15:44.039Z,15.30
2017-07-26T10:18:11.475Z,15.30
2017-07-26T10:20:38.914Z,15.10
2017-07-26T10:23:07.176Z,15.10
2017-07-26T10:25:34.626Z,15.10
2017-07-26T10:28:02.062Z,15.10
2017-07-26T10:30:29.550Z,15.30
2017-07-26T10:32:56.976Z,15.30
2017-07-26T10:35:24.417Z,15.40
2017-07-26T10:37:51.849Z,15.40
2017-07-26T10:40:19.298Z,15.50
2017-07-26T10:42:46.739Z,15.50
2017-07-26T10:45:14.959Z,15.60
2017-07-26T10:47:42.400Z,15.60
2017-07-26T10:50:09.844Z,15.70
2017-07-26T10:52:37.282Z,15.80
2017-07-26T10:55:05.502Z,15.90
2017-07-26T10:57:32.950Z,15.90
2017-07-26T11:00:00.413Z,15.80
2017-07-26T11:02:27.874Z,15.80
2017-07-26T11:04:55.311Z,15.80
2017-07-26T11:07:22.765Z,15.90
2017-07-26T11:09:50.203Z,15.90
2017-07-26T11:12:18.415Z,15.90
2017-07-26T11:14:45.855Z,15.90
2017-07-26T11:17:13.298Z,15.90
2017-07-26T11:19:40.738Z,15.90
2017-07-26T11:22:08.951Z,16.00
2017-07-26T11:24:36.398Z,15.90
2017-07-26T11:27:03.838Z,16.10
2017-07-26T11:29:31.278Z,16.00
2017-07-26T11:31:59.494Z,16.00
2017-07-26T11:34:26.931Z,16.00
2017-07-26T11:36:54.367Z,16.00
2017-07-26T11:39:22.582Z,16.10
2017-07-26T11:41:50.022Z,16.10
2017-07-26T11:44:17.459Z,16.00
2017-07-26T11:46:44.898Z,16.00
2017-07-26T11:49:13.130Z,16.20
2017-07-26T11:51:40.555Z,16.10
2017-07-26T11:54:07.998Z,16.20
2017-07-26T11:56:36.202Z,16.40
2017-07-26T11:59:03.638Z,16.30
2017-07-26T12:01:31.081Z,16.40
2017-07-26T12:03:59.295Z,16.30
2017-07-26T12:06:26.734Z,16.30
2017-07-26T12:08:54.178Z,16.30
2017-07-26T12:11:21.614Z,16.20
2017-07-26T12:13:49.822Z,16.10
2017-07-26T12:16:17.262Z,16.10
2017-07-26T12:18:44.719Z,16.20
2017-07-26T12:21:12.154Z,16.10
2017-07-26T12:23:40.406Z,16.30
2017-07-26T12:26:07.863Z,16.30
2017-07-26T12:28:36.073Z,16.20
2017-07-26T12:31:04.283Z,16.30
2017-07-26T12:33:31.723Z,16.20
2017-07-26T12:35:59.162Z,16.30
2017-07-26T12:38:26.603Z,16.40
2017-07-26T12:40:54.810Z,16.20
2017-07-26T12:43:22.243Z,16.20
2017-07-26T12:45:50.451Z,16.50
2017-07-26T12:48:17.890Z,16.50
2017-07-26T12:50:45.330Z,16.30
2017-07-26T12:53:13.541Z,16.30
2017-07-26T12:55:41.004Z,16.30
2017-07-26T12:58:08.456Z,16.30
2017-07-26T13:00:35.907Z,16.30
2017-07-26T13:03:03.351Z,16.40
2017-07-26T13:05:30.799Z,16.70
2017-07-26T13:07:58.274Z,16.80
2017-07-26T13:10:25.719Z,16.90
2017-07-26T13:12:53.190Z,16.90
2017-07-26T13:15:20.635Z,16.80
2017-07-26T13:17:48.076Z,16.90
2017-07-26T13:20:15.518Z,17.00
2017-07-26T13:22:43.793Z,16.70
2017-07-26T13:25:12.003Z,16.40
2017-07-26T13:27:39.457Z,16.40
2017-07-26T13:30:06.900Z,16.30
2017-07-26T13:32:34.343Z,16.30
2017-07-26T13:35:01.782Z,16.30
2017-07-26T13:37:30.000Z,16.40
2017-07-26T13:39:57.430Z,16.40
2017-07-26T13:42:24.879Z,16.50
2017-07-26T13:44:53.086Z,16.70
2017-07-26T13:47:20.537Z,16.70
2017-07-26T13:49:47.975Z,16.80
2017-07-26T13:52:15.411Z,16.70
2017-07-26T13:54:43.626Z,16.80
2017-07-26T13:57:11.122Z,16.80
2017-07-26T13:59:38.570Z,16.90
2017-07-26T14:02:06.006Z,16.80
2017-07-26T14:04:33.455Z,16.70
2017-07-26T14:07:00.910Z,16.70
2017-07-26T14:09:28.370Z,16.80
2017-07-26T14:11:55.823Z,16.60
2017-07-26T14:14:23.279Z,16.60
2017-07-26T14:16:50.710Z,16.60
2017-07-26T14:19:18.154Z,16.60
2017-07-26T14:21:46.366Z,16.60
2017-07-26T14:24:13.822Z,16.60
2017-07-26T14:26:41.273Z,16.60
2017-07-26T14:29:08.735Z,16.40
2017-07-26T14:31:36.173Z,16.60
2017-07-26T14:34:03.610Z,16.60
2017-07-26T14:36:31.820Z,16.60
2017-07-26T14:38:59.277Z,16.50
2017-07-26T14:41:26.731Z,16.80
2017-07-26T14:43:54.367Z,16.70
2017-07-26T14:46:22.579Z,16.80
2017-07-26T14:48:50.014Z,16.80
2017-07-26T14:51:17.462Z,17.00
2017-07-26T14:53:44.899Z,17.20
2017-07-26T14:56:13.114Z,18.00
2017-07-26T14:58:40.562Z,17.90
2017-07-26T15:01:08.002Z,18.40
2017-07-26T15:03:35.439Z,18.70
2017-07-26T15:06:03.655Z,19.00
2017-07-26T15:08:31.103Z,19.00
2017-07-26T15:10:58.558Z,19.20
2017-07-26T15:13:25.999Z,19.30
2017-07-26T15:15:53.998Z,19.40
2017-07-26T15:18:21.443Z,19.40
2017-07-26T15:20:48.877Z,18.90
2017-07-26T15:23:16.321Z,19.20
2017-07-26T15:25:43.765Z,19.20
2017-07-26T15:28:11.982Z,19.20
2017-07-26T15:30:39.433Z,19.20
2017-07-26T15:33:06.871Z,19.40
2017-07-26T15:35:34.303Z,19.30
2017-07-26T15:38:02.527Z,19.30
2017-07-26T15:40:29.975Z,19.20
2017-07-26T15:42:58.186Z,19.40
2017-07-26T15:45:25.638Z,19.40
2017-07-26T15:47:53.082Z,19.50
2017-07-26T15:50:20.531Z,19.50
2017-07-26T15:52:47.978Z,19.30
2017-07-26T15:55:16.186Z,19.30
2017-07-26T15:57:43.679Z,19.30
2017-07-26T16:00:11.111Z,19.30
2017-07-26T16:02:38.556Z,19.40
2017-07-26T16:05:06.012Z,19.40
2017-07-26T16:07:33.468Z,19.40
2017-07-26T16:10:00.902Z,19.50
2017-07-26T16:12:28.335Z,19.40
2017-07-26T16:14:56.557Z,19.60
2017-07-26T16:17:23.987Z,19.50
2017-07-26T16:19:51.427Z,19.60
2017-07-26T16:22:19.651Z,19.70
2017-07-26T16:24:47.097Z,19.70
2017-07-26T16:27:14.538Z,19.60
2017-07-26T16:29:41.983Z,19.70
2017-07-26T16:32:09.414Z,19.60
2017-07-26T16:34:37.635Z,19.60
2017-07-26T16:37:05.075Z,19.60
2017-07-26T16:39:32.518Z,19.60
2017-07-26T16:41:59.960Z,19.50
2017-07-26T16:44:28.182Z,19.40
2017-07-26T16:46:55.634Z,19.40
2017-07-26T16:49:23.096Z,19.20
2017-07-26T16:51:50.535Z,19.30
2017-07-26T16:54:17.971Z,19.40
2017-07-26T16:56:46.189Z,19.60
2017-07-26T16:59:13.643Z,19.60
2017-07-26T17:01:41.095Z,19.60
2017-07-26T17:04:08.958Z,19.60
2017-07-26T17:06:36.411Z,19.70
2017-07-26T17:09:03.855Z,19.70
2017-07-26T17:11:31.298Z,19.30
2017-07-26T17:13:58.739Z,18.80
2017-07-26T17:16:26.191Z,18.90
2017-07-26T17:18:54.402Z,18.70
2017-07-26T17:21:21.842Z,18.80
2017-07-26T17:23:49.275Z,18.70
2017-07-26T17:26:16.715Z,18.80
2017-07-26T17:28:44.154Z,18.80
2017-07-26T17:31:11.616Z,18.90
2017-07-26T17:33:39.046Z,18.90
2017-07-26T17:36:06.494Z,18.90
2017-07-26T17:38:33.931Z,18.90
2017-07-26T17:41:01.366Z,19.00
2017-07-26T17:43:29.592Z,18.80
2017-07-26T17:45:57.027Z,18.80
2017-07-26T17:48:24.478Z,18.80
2017-07-26T17:50:51.925Z,18.90
2017-07-26T17:53:19.362Z,18.90
2017-07-26T17:55:47.583Z,18.70
2017-07-26T17:58:15.038Z,18.70
2017-07-26T18:00:42.470Z,18.60
2017-07-26T18:03:09.915Z,18.60
2017-07-26T18:05:38.127Z,18.50
2017-07-26T18:08:05.582Z,18.50
2017-07-26T18:10:33.034Z,18.50
2017-07-26T18:13:00.470Z,18.50
2017-07-26T18:15:27.903Z,18.60
2017-07-26T18:17:56.125Z,18.60
2017-07-26T18:20:23.563Z,18.60
2017-07-26T18:22:50.998Z,18.50
2017-07-26T18:25:19.206Z,18.50
2017-07-26T18:27:46.647Z,18.50
2017-07-26T18:30:14.091Z,18.40
2017-07-26T18:32:42.294Z,18.40
2017-07-26T18:35:09.763Z,18.40
2017-07-26T18:37:37.211Z,18.30
2017-07-26T18:40:04.662Z,18.30
2017-07-26T18:42:32.102Z,18.30
2017-07-26T18:44:59.554Z,18.40
2017-07-26T18:47:26.982Z,18.20
2017-07-26T18:49:55.203Z,18.10
2017-07-26T18:52:22.647Z,18.10
2017-07-26T18:54:50.090Z,18.00
2017-07-26T18:57:18.291Z,18.00
2017-07-26T18:59:45.758Z,18.00
2017-07-26T19:02:13.203Z,17.90
2017-07-26T19:04:40.639Z,17.80
2017-07-26T19:07:08.082Z,17.70
2017-07-26T19:09:35.518Z,17.70
2017-07-26T19:12:02.963Z,17.70
2017-07-26T19:14:30.407Z,17.60
2017-07-26T19:16:57.857Z,17.50
2017-07-26T19:19:25.316Z,17.40
2017-07-26T19:21:52.764Z,17.40
2017-07-26T19:24:20.207Z,17.40
2017-07-26T19:26:47.660Z,17.40
2017-07-26T19:29:15.095Z,17.50
2017-07-26T19:31:42.548Z,17.60
2017-07-26T19:34:09.982Z,17.50
2017-07-26T19:36:38.204Z,17.60
2017-07-26T19:39:05.647Z,17.60
2017-07-26T19:41:33.078Z,17.50
2017-07-26T19:44:01.291Z,17.60
2017-07-26T19:46:28.742Z,17.60
2017-07-26T19:48:56.187Z,17.50
2017-07-26T19:51:23.618Z,17.50
2017-07-26T19:53:51.838Z,17.50
2017-07-26T19:56:19.286Z,17.50
2017-07-26T19:58:46.743Z,17.30
2017-07-26T20:01:14.199Z,17.30
2017-07-26T20:03:41.654Z,17.40
2017-07-26T20:06:09.106Z,17.30
2017-07-26T20:08:36.565Z,17.40
2017-07-26T20:11:04.027Z,17.30
2017-07-26T20:13:31.480Z,17.30
2017-07-26T20:15:58.923Z,17.20
2017-07-26T20:18:26.372Z,17.20
2017-07-26T20:20:53.811Z,17.10
2017-07-26T20:23:22.038Z,16.70
2017-07-26T20:25:49.477Z,16.70
2017-07-26T20:28:16.918Z,16.50
2017-07-26T20:30:44.367Z,16.40
2017-07-26T20:33:11.802Z,16.30
2017-07-26T20:35:40.020Z,16.20
2017-07-26T20:38:07.463Z,16.20
2017-07-26T20:40:34.906Z,16.10
2017-07-26T20:43:02.338Z,16.00
2017-07-26T20:45:29.779Z,16.00
2017-07-26T20:47:57.210Z,16.10
2017-07-26T20:50:24.658Z,16.00
2017-07-26T20:52:52.100Z,16.10
2017-07-26T20:55:19.550Z,16.00
2017-07-26T20:57:47.000Z,15.90
2017-07-26T21:00:14.455Z,15.90
2017-07-26T21:02:41.930Z,15.90
2017-07-26T21:05:10.151Z,15.80
2017-07-26T21:07:37.590Z,15.80
2017-07-26T21:10:05.026Z,15.70
2017-07-26T21:12:33.242Z,15.70
2017-07-26T21:15:00.693Z,15.60
2017-07-26T21:17:28.154Z,15.60
2017-07-26T21:19:55.595Z,15.40
2017-07-26T21:22:23.815Z,15.30
2017-07-26T21:24:51.283Z,15.30
2017-07-26T21:27:18.768Z,15.30
2017-07-26T21:29:46.220Z,15.20
2017-07-26T21:32:13.667Z,15.00
2017-07-26T21:34:42.524Z,15.00
2017-07-26T21:37:10.037Z,14.80
2017-07-26T21:39:37.470Z,14.90
2017-07-26T21:42:04.955Z,14.80
2017-07-26T21:44:32.413Z,14.90
2017-07-26T21:47:00.630Z,14.80
2017-07-26T21:49:28.099Z,14.80
2017-07-26T21:51:55.597Z,14.60
2017-07-26T21:54:23.903Z,14.40
2017-07-26T21:56:51.354Z,14.40
2017-07-26T21:59:18.795Z,14.20
2017-07-26T22:01:46.255Z,14.20
2017-07-26T22:04:13.699Z,14.30
2017-07-26T22:06:41.135Z,14.20
2017-07-26T22:09:09.363Z,14.30
2017-07-26T22:11:36.815Z,14.30
2017-07-26T22:14:04.271Z,14.10
2017-07-26T22:16:31.710Z,14.00
2017-07-26T22:18:59.164Z,14.00
2017-07-26T22:21:26.602Z,14.10
2017-07-26T22:23:54.816Z,14.00
2017-07-26T22:26:22.263Z,14.00
2017-07-26T22:28:49.698Z,14.10
2017-07-26T22:31:17.135Z,14.20
2017-07-26T22:33:44.571Z,14.10
2017-07-26T22:36:12.026Z,13.90
2017-07-26T22:38:39.471Z,14.00
2017-07-26T22:41:06.926Z,13.90
2017-07-26T22:43:34.371Z,13.80
2017-07-26T22:46:01.819Z,13.80
2017-07-26T22:48:29.258Z,13.60
2017-07-26T22:50:56.710Z,13.70
2017-07-26T22:53:24.153Z,13.70
2017-07-26T22:55:52.358Z,13.70
2017-07-26T22:58:19.803Z,13.60
2017-07-26T23:00:47.251Z,13.60
2017-07-26T23:03:14.687Z,13.70
2017-07-26T23:05:42.934Z,13.70
2017-07-26T23:08:10.387Z,13.70
2017-07-26T23:10:37.835Z,13.50
2017-07-26T23:13:05.271Z,13.60
2017-07-26T23:15:32.740Z,13.70
2017-07-26T23:18:00.180Z,13.70
2017-07-26T23:20:27.619Z,13.60
2017-07-26T23:22:55.068Z,13.60
2017-07-26T23:25:22.506Z,13.60
2017-07-26T23:27:50.723Z,13.60
2017-07-26T23:30:18.179Z,13.60
2017-07-26T23:32:45.635Z,13.70
2017-07-26T23:35:13.071Z,13.60
2017-07-26T23:37:40.518Z,13.70
2017-07-26T23:40:08.723Z,13.60
2017-07-26T23:42:36.180Z,13.60
2017-07-26T23:45:03.619Z,13.60
2017-07-26T23:47:31.063Z,13.60
2017-07-26T23:49:58.500Z,13.60
2017-07-26T23:52:26.718Z,13.50
2017-07-26T23:54:54.174Z,13.40
2017-07-26T23:57:21.619Z,13.30
2017-07-26T23:59:49.060Z,13.30
